createdAt,value
2023-02-13T00:01:06.325Z,103239.38
2023-02-13T00:03:32.990Z,103241.81
2023-02-13T00:05:59.528Z,103240.22
2023-02-13T00:08:26.130Z,103249.94
2023-02-13T00:10:52.627Z,103247.47
2023-02-13T00:13:19.142Z,103241.00
2023-02-13T00:15:45.711Z,103243.44
2023-02-13T00:18:12.199Z,103238.03
2023-02-13T00:20:38.688Z,103238.84
2023-02-13T00:23:05.190Z,103245.06
2023-02-13T00:25:31.672Z,103243.16
2023-02-13T00:27:58.158Z,103237.50
2023-02-13T00:30:24.639Z,103239.94
2023-02-13T00:32:51.364Z,103237.75
2023-02-13T00:35:17.997Z,103240.19
2023-02-13T00:37:44.485Z,103239.94
2023-02-13T00:40:11.610Z,103242.06
2023-02-13T00:42:38.367Z,103241.28
2023-02-13T00:45:05.813Z,103229.59
2023-02-13T00:47:32.360Z,103236.91
2023-02-13T00:49:59.404Z,103239.34
2023-02-13T00:52:25.906Z,103228.00
2023-02-13T00:54:52.418Z,103229.31
2023-02-13T00:57:18.940Z,103229.06
2023-02-13T00:59:45.520Z,103235.03
2023-02-13T01:02:12.082Z,103235.56
2023-02-13T01:04:39.426Z,103232.03
2023-02-13T01:07:05.991Z,103240.97
2023-02-13T01:09:32.512Z,103233.41
2023-02-13T01:11:59.032Z,103240.13
2023-02-13T01:14:25.766Z,103235.00
2023-02-13T01:16:52.245Z,103233.94
2023-02-13T01:19:18.960Z,103235.31
2023-02-13T01:21:45.498Z,103233.94
2023-02-13T01:24:12.089Z,103238.25
2023-02-13T01:26:38.877Z,103237.72
2023-02-13T01:29:05.427Z,103233.94
2023-02-13T01:31:32.645Z,103235.81
2023-02-13T01:33:59.836Z,103235.28
2023-02-13T01:36:26.945Z,103236.91
2023-02-13T01:38:56.780Z,103226.94
2023-02-13T01:41:24.157Z,103224.50
2023-02-13T01:43:57.854Z,103224.50
2023-02-13T01:46:34.788Z,103234.72
2023-02-13T01:49:13.717Z,103227.97
2023-02-13T01:51:40.438Z,103229.31
2023-02-13T01:54:10.981Z,103223.13
2023-02-13T01:56:46.585Z,103226.38
2023-02-13T01:59:16.440Z,103223.94
2023-02-13T02:01:43.716Z,103229.03
2023-02-13T02:04:14.582Z,103230.13
2023-02-13T02:06:48.108Z,103222.03
2023-02-13T02:09:26.193Z,103224.19
2023-02-13T02:11:55.074Z,103233.91
2023-02-13T02:14:23.866Z,103226.06
2023-02-13T02:16:50.671Z,103230.66
2023-02-13T02:20:35.671Z,103224.16
2023-02-13T02:23:15.302Z,103231.72
2023-02-13T02:26:11.205Z,103233.84
2023-02-13T02:28:55.046Z,103233.84
2023-02-13T02:31:43.598Z,103240.88
2023-02-13T02:34:32.089Z,103233.03
2023-02-13T02:37:36.605Z,103235.47
2023-02-13T02:40:25.317Z,103235.47
2023-02-13T02:43:23.747Z,103229.00
2023-02-13T02:45:58.332Z,103239.53
2023-02-13T02:48:49.430Z,103232.47
2023-02-13T02:51:27.291Z,103238.69
2023-02-13T02:54:35.409Z,103233.56
2023-02-13T02:57:09.417Z,103230.88
2023-02-13T02:59:55.232Z,103235.75
2023-02-13T03:02:41.138Z,103234.94
2023-02-13T03:05:36.398Z,103232.78
2023-02-13T03:08:03.474Z,103236.25
2023-02-13T03:10:51.985Z,103236.00
2023-02-13T03:13:33.257Z,103238.44
2023-02-13T03:16:18.550Z,103244.59
2023-02-13T03:19:06.410Z,103238.16
2023-02-13T03:22:11.819Z,103241.63
2023-02-13T03:25:09.219Z,103236.53
2023-02-13T03:28:00.460Z,103235.72
2023-02-13T03:30:33.394Z,103244.31
2023-02-13T03:33:17.902Z,103237.59
2023-02-13T03:36:12.165Z,103241.63
2023-02-13T03:39:03.149Z,103234.59
2023-02-13T03:41:45.259Z,103230.03
2023-02-13T03:44:27.786Z,103231.38
2023-02-13T03:46:57.345Z,103230.56
2023-02-13T03:49:47.788Z,103233.28
2023-02-13T03:52:39.577Z,103233.28
2023-02-13T03:55:31.396Z,103236.53
2023-02-13T03:58:22.083Z,103232.19
2023-02-13T04:00:51.696Z,103220.88
2023-02-13T04:03:25.790Z,103220.63
2023-02-13T04:06:04.767Z,103219.78
2023-02-13T04:08:31.295Z,103213.88
2023-02-13T04:11:15.609Z,103219.78
2023-02-13T04:13:52.891Z,103224.38
2023-02-13T04:16:29.538Z,103218.19
2023-02-13T04:18:57.075Z,103216.00
2023-02-13T04:21:24.306Z,103220.88
2023-02-13T04:23:50.809Z,103229.50
2023-02-13T04:26:19.902Z,103220.63
2023-02-13T04:28:46.680Z,103229.78
2023-02-13T04:31:13.357Z,103219.00
2023-02-13T04:33:39.925Z,103213.31
2023-02-13T04:36:06.697Z,103211.69
2023-02-13T04:38:33.197Z,103215.47
2023-02-13T04:40:59.970Z,103209.25
2023-02-13T04:43:26.516Z,103206.31
2023-02-13T04:45:53.330Z,103197.44
2023-02-13T04:48:19.899Z,103199.31
2023-02-13T04:50:46.826Z,103193.91
2023-02-13T04:53:13.355Z,103200.91
2023-02-13T04:55:39.829Z,103203.88
2023-02-13T04:58:06.401Z,103202.00
2023-02-13T05:00:32.904Z,103207.38
2023-02-13T05:03:10.666Z,103205.78
2023-02-13T05:05:37.792Z,103213.31
2023-02-13T05:08:07.298Z,103201.97
2023-02-13T05:10:34.048Z,103205.50
2023-02-13T05:13:00.686Z,103203.59
2023-02-13T05:15:27.278Z,103207.38
2023-02-13T05:17:53.890Z,103205.75
2023-02-13T05:20:20.689Z,103214.91
2023-02-13T05:23:09.646Z,103205.75
2023-02-13T05:25:37.559Z,103207.63
2023-02-13T05:28:04.819Z,103205.75
2023-02-13T05:30:31.432Z,103218.16
2023-02-13T05:32:57.950Z,103215.72
2023-02-13T05:35:25.604Z,103216.53
2023-02-13T05:37:52.114Z,103216.53
2023-02-13T05:40:18.878Z,103214.66
2023-02-13T05:42:45.369Z,103219.78
2023-02-13T05:45:11.886Z,103212.75
2023-02-13T05:47:38.451Z,103222.47
2023-02-13T05:50:05.513Z,103222.75
2023-02-13T05:52:32.081Z,103218.69
2023-02-13T05:54:58.998Z,103222.44
2023-02-13T05:57:25.526Z,103223.25
2023-02-13T05:59:52.086Z,103227.84
2023-02-13T06:02:18.627Z,103235.66
2023-02-13T06:04:45.157Z,103236.47
2023-02-13T06:07:11.635Z,103237.56
2023-02-13T06:09:38.154Z,103246.19
2023-02-13T06:12:04.778Z,103241.88
2023-02-13T06:14:31.563Z,103246.72
2023-02-13T06:16:58.310Z,103243.50
2023-02-13T06:19:24.855Z,103239.97
2023-02-13T06:21:51.599Z,103248.34
2023-02-13T06:24:18.279Z,103246.19
2023-02-13T06:26:44.957Z,103248.06
2023-02-13T06:29:12.757Z,103247.00
2023-02-13T06:31:39.471Z,103243.50
2023-02-13T06:34:06.098Z,103238.63
2023-02-13T06:36:32.611Z,103244.00
2023-02-13T06:38:59.221Z,103243.75
2023-02-13T06:41:25.686Z,103246.44
2023-02-13T06:43:52.271Z,103246.69
2023-02-13T06:46:18.855Z,103254.22
2023-02-13T06:48:45.363Z,103245.88
2023-02-13T06:51:11.882Z,103254.78
2023-02-13T06:53:39.666Z,103263.41
2023-02-13T06:56:07.056Z,103256.13
2023-02-13T06:58:34.219Z,103262.34
2023-02-13T07:01:00.984Z,103269.31
2023-02-13T07:03:27.641Z,103264.50
2023-02-13T07:05:54.133Z,103273.66
2023-02-13T07:08:20.699Z,103272.28
2023-02-13T07:10:47.296Z,103269.91
2023-02-13T07:13:13.860Z,103264.53
2023-02-13T07:15:40.397Z,103263.44
2023-02-13T07:18:07.489Z,103268.84
2023-02-13T07:20:34.325Z,103272.63
2023-02-13T07:23:02.289Z,103263.81
2023-02-13T07:25:29.561Z,103275.16
2023-02-13T07:28:01.240Z,103267.88
2023-02-13T07:30:27.853Z,103277.03
2023-02-13T07:32:54.403Z,103279.47
2023-02-13T07:35:20.882Z,103277.59
2023-02-13T07:37:47.418Z,103273.31
2023-02-13T07:40:13.918Z,103266.31
2023-02-13T07:42:40.496Z,103274.44
2023-02-13T07:45:07.588Z,103274.16
2023-02-13T07:47:35.130Z,103275.47
2023-02-13T07:50:03.061Z,103276.59
2023-02-13T07:52:29.650Z,103275.53
2023-02-13T07:54:56.153Z,103278.78
2023-02-13T07:57:22.703Z,103291.72
2023-02-13T07:59:49.972Z,103287.44
2023-02-13T08:02:16.808Z,103288.25
2023-02-13T08:04:46.252Z,103285.81
2023-02-13T08:07:14.049Z,103287.69
2023-02-13T08:09:59.162Z,103285.53
2023-02-13T08:12:25.776Z,103286.63
2023-02-13T08:14:53.442Z,103284.75
2023-02-13T08:17:19.945Z,103292.03
2023-02-13T08:19:46.470Z,103295.00
2023-02-13T08:22:13.132Z,103291.78
2023-02-13T08:24:39.624Z,103296.63
2023-02-13T08:27:06.200Z,103295.28
2023-02-13T08:29:34.589Z,103293.41
2023-02-13T08:32:01.161Z,103290.13
2023-02-13T08:34:27.764Z,103285.81
2023-02-13T08:36:54.480Z,103292.88
2023-02-13T08:39:21.022Z,103300.41
2023-02-13T08:41:47.608Z,103300.94
2023-02-13T08:44:14.088Z,103298.81
2023-02-13T08:46:40.580Z,103297.97
2023-02-13T08:49:07.069Z,103290.44
2023-02-13T08:51:33.586Z,103297.44
2023-02-13T08:54:00.149Z,103284.47
2023-02-13T08:56:27.850Z,103295.53
2023-02-13T08:58:55.036Z,103298.81
2023-02-13T09:01:21.610Z,103294.47
2023-02-13T09:03:48.178Z,103291.22
2023-02-13T09:06:14.752Z,103292.84
2023-02-13T09:08:41.303Z,103288.78
2023-02-13T09:11:07.860Z,103296.09
2023-02-13T09:13:37.059Z,103285.81
2023-02-13T09:16:07.863Z,103299.88
2023-02-13T09:18:35.247Z,103293.94
2023-02-13T09:21:04.573Z,103297.97
2023-02-13T09:23:33.187Z,103293.38
2023-02-13T09:26:04.224Z,103302.03
2023-02-13T09:28:32.754Z,103302.31
2023-02-13T09:30:59.530Z,103309.59
2023-02-13T09:33:26.937Z,103306.34
2023-02-13T09:35:53.481Z,103307.41
2023-02-13T09:38:20.017Z,103313.63
2023-02-13T09:40:56.678Z,103316.06
2023-02-13T09:43:29.627Z,103317.69
2023-02-13T09:46:00.075Z,103315.50
2023-02-13T09:48:32.280Z,103321.22
2023-02-13T09:50:59.712Z,103321.47
2023-02-13T09:53:28.633Z,103310.66
2023-02-13T09:56:05.893Z,103317.16
2023-02-13T09:58:48.469Z,103306.03
2023-02-13T10:01:31.061Z,103309.03
2023-02-13T10:04:16.066Z,103311.75
2023-02-13T10:06:50.066Z,103306.88
2023-02-13T10:09:35.770Z,103306.88
2023-02-13T10:12:12.075Z,103306.03
2023-02-13T10:14:48.310Z,103309.56
2023-02-13T10:17:18.852Z,103307.13
2023-02-13T10:19:55.565Z,103306.28
2023-02-13T10:22:27.002Z,103310.66
2023-02-13T10:25:10.872Z,103304.94
2023-02-13T10:27:47.125Z,103304.66
2023-02-13T10:30:50.695Z,103308.13
2023-02-13T10:33:21.976Z,103306.25
2023-02-13T10:36:02.783Z,103298.09
2023-02-13T10:38:35.762Z,103298.59
2023-02-13T10:41:25.103Z,103293.72
2023-02-13T10:44:17.934Z,103292.66
2023-02-13T10:46:53.788Z,103290.50
2023-02-13T10:49:43.851Z,103289.44
2023-02-13T10:52:28.614Z,103285.38
2023-02-13T10:55:23.078Z,103286.22
2023-02-13T10:58:21.213Z,103277.56
2023-02-13T11:00:58.491Z,103278.44
2023-02-13T11:03:27.246Z,103283.81
2023-02-13T11:05:54.978Z,103282.19
2023-02-13T11:08:36.350Z,103280.03
2023-02-13T11:11:02.883Z,103278.13
2023-02-13T11:13:30.551Z,103280.84
2023-02-13T11:16:10.539Z,103281.09
2023-02-13T11:18:39.999Z,103281.34
2023-02-13T11:21:11.645Z,103266.75
2023-02-13T11:23:42.807Z,103279.22
2023-02-13T11:26:12.542Z,103269.97
2023-02-13T11:28:47.862Z,103275.38
2023-02-13T11:31:31.822Z,103274.56
2023-02-13T11:34:00.435Z,103258.41
2023-02-13T11:36:32.367Z,103266.50
2023-02-13T11:39:05.056Z,103264.94
2023-02-13T11:41:37.240Z,103256.50
2023-02-13T11:44:04.805Z,103260.06
2023-02-13T11:46:44.904Z,103252.78
2023-02-13T11:49:23.400Z,103247.38
2023-02-13T11:51:57.729Z,103245.69
2023-02-13T11:54:35.877Z,103253.28
2023-02-13T11:57:16.085Z,103249.75
2023-02-13T11:59:44.970Z,103244.09
2023-02-13T12:02:21.908Z,103248.97
2023-02-13T12:04:51.016Z,103250.81
2023-02-13T12:07:29.494Z,103251.59
2023-02-13T12:10:02.358Z,103249.16
2023-02-13T12:12:35.543Z,103249.44
2023-02-13T12:15:19.015Z,103244.81
2023-02-13T12:17:47.652Z,103248.34
2023-02-13T12:20:16.625Z,103241.34
2023-02-13T12:22:55.879Z,103248.34
2023-02-13T12:25:38.547Z,103237.00
2023-02-13T12:28:18.608Z,103242.66
2023-02-13T12:31:10.587Z,103238.84
2023-02-13T12:33:55.082Z,103235.31
2023-02-13T12:36:42.760Z,103233.16
2023-02-13T12:39:36.288Z,103230.44
2023-02-13T12:42:31.576Z,103233.41
2023-02-13T12:45:19.913Z,103234.44
2023-02-13T12:47:56.338Z,103241.19
2023-02-13T12:50:41.539Z,103240.91
2023-02-13T12:53:20.416Z,103241.47
2023-02-13T12:56:00.464Z,103253.59
2023-02-13T12:58:48.354Z,103249.81
2023-02-13T13:01:20.420Z,103242.25
2023-02-13T13:04:11.515Z,103242.78
2023-02-13T13:06:54.569Z,103244.97
2023-02-13T13:09:46.129Z,103238.22
2023-02-13T13:12:51.082Z,103230.44
2023-02-13T13:15:20.528Z,103232.09
2023-02-13T13:17:59.073Z,103233.69
2023-02-13T13:20:52.550Z,103229.44
2023-02-13T13:23:20.904Z,103219.66
2023-02-13T13:26:04.874Z,103226.09
2023-02-13T13:28:43.583Z,103227.22
2023-02-13T13:31:11.402Z,103236.41
2023-02-13T13:33:41.800Z,103241.84
2023-02-13T13:36:41.108Z,103237.50
2023-02-13T13:39:20.414Z,103235.34
2023-02-13T13:42:11.804Z,103232.66
2023-02-13T13:45:16.054Z,103231.91
2023-02-13T13:48:10.058Z,103231.16
2023-02-13T13:50:39.883Z,103232.78
2023-02-13T13:53:20.882Z,103232.72
2023-02-13T13:55:50.369Z,103231.91
2023-02-13T13:58:40.954Z,103233.00
2023-02-13T14:01:32.626Z,103229.19
2023-02-13T14:04:04.876Z,103227.31
2023-02-13T14:06:40.430Z,103219.75
2023-02-13T14:09:07.716Z,103218.66
2023-02-13T14:11:39.610Z,103218.13
2023-02-13T14:14:34.966Z,103216.25
2023-02-13T14:17:02.113Z,103208.16
2023-02-13T14:19:37.828Z,103212.75
2023-02-13T14:22:19.767Z,103202.75
2023-02-13T14:24:53.791Z,103203.81
2023-02-13T14:27:25.497Z,103201.94
2023-02-13T14:29:52.191Z,103199.25
2023-02-13T14:32:20.267Z,103200.88
2023-02-13T14:34:56.747Z,103196.03
2023-02-13T14:37:49.970Z,103198.41
2023-02-13T14:40:17.504Z,103191.13
2023-02-13T14:42:50.234Z,103185.22
2023-02-13T14:45:19.260Z,103185.50
2023-02-13T14:47:53.384Z,103189.56
2023-02-13T14:50:24.069Z,103185.75
2023-02-13T14:52:51.400Z,103183.03
2023-02-13T14:55:32.085Z,103187.09
2023-02-13T14:58:06.381Z,103179.25
2023-02-13T15:00:54.618Z,103186.34
2023-02-13T15:03:45.055Z,103180.94
2023-02-13T15:06:27.231Z,103178.25
2023-02-13T15:08:54.033Z,103177.97
2023-02-13T15:11:38.357Z,103181.72
2023-02-13T15:14:27.521Z,103176.06
2023-02-13T15:17:07.426Z,103172.00
2023-02-13T15:19:36.927Z,103172.31
2023-02-13T15:22:04.999Z,103175.56
2023-02-13T15:24:58.223Z,103178.00
2023-02-13T15:27:30.003Z,103176.34
2023-02-13T15:30:00.173Z,103173.66
2023-02-13T15:32:36.898Z,103160.13
2023-02-13T15:35:26.343Z,103147.19
2023-02-13T15:37:53.387Z,103150.72
2023-02-13T15:40:26.214Z,103148.03
2023-02-13T15:42:53.153Z,103146.66
2023-02-13T15:45:20.968Z,103135.28
2023-02-13T15:47:48.067Z,103148.28
2023-02-13T15:50:16.806Z,103143.13
2023-02-13T15:52:43.365Z,103141.53
2023-02-13T15:55:38.475Z,103141.53
2023-02-13T15:58:05.637Z,103139.88
2023-02-13T16:00:34.663Z,103141.53
2023-02-13T16:03:03.076Z,103139.09
2023-02-13T16:05:39.960Z,103138.25
2023-02-13T16:08:30.982Z,103131.78
2023-02-13T16:11:16.324Z,103137.47
2023-02-13T16:14:24.833Z,103143.66
2023-02-13T16:17:17.206Z,103143.41
2023-02-13T16:19:57.578Z,103148.56
2023-02-13T16:22:34.057Z,103151.00
2023-02-13T16:25:26.386Z,103149.66
2023-02-13T16:27:55.627Z,103148.59
2023-02-13T16:30:25.141Z,103152.38
2023-02-13T16:32:51.804Z,103162.09
2023-02-13T16:35:21.328Z,103160.47
2023-02-13T16:37:51.292Z,103164.78
2023-02-13T16:40:38.562Z,103162.34
2023-02-13T16:43:32.985Z,103166.41
2023-02-13T16:46:17.783Z,103161.00
2023-02-13T16:48:56.187Z,103164.81
2023-02-13T16:51:33.154Z,103164.00
2023-02-13T16:54:10.830Z,103168.59
2023-02-13T16:56:56.490Z,103164.53
2023-02-13T16:59:42.045Z,103161.59
2023-02-13T17:02:28.619Z,103157.25
2023-02-13T17:05:07.417Z,103158.63
2023-02-13T17:07:46.804Z,103154.84
2023-02-13T17:10:24.214Z,103163.22
2023-02-13T17:12:51.653Z,103158.38
2023-02-13T17:15:25.809Z,103172.41
2023-02-13T17:17:53.728Z,103172.66
2023-02-13T17:20:26.534Z,103170.22
2023-02-13T17:22:55.195Z,103172.66
2023-02-13T17:25:29.990Z,103179.16
2023-02-13T17:28:02.173Z,103185.91
2023-02-13T17:30:31.908Z,103184.03
2023-02-13T17:33:02.144Z,103178.34
2023-02-13T17:35:28.666Z,103177.53
2023-02-13T17:37:55.359Z,103175.09
2023-02-13T17:40:25.454Z,103179.16
2023-02-13T17:42:56.514Z,103175.94
2023-02-13T17:45:23.848Z,103172.97
2023-02-13T17:47:50.334Z,103172.41
2023-02-13T17:50:17.506Z,103176.19
2023-02-13T17:52:44.846Z,103184.03
2023-02-13T17:55:22.696Z,103171.88
2023-02-13T17:57:50.659Z,103178.63
2023-02-13T18:00:20.204Z,103181.34
2023-02-13T18:02:47.937Z,103194.56
2023-02-13T18:05:16.479Z,103184.31
2023-02-13T18:07:43.717Z,103187.56
2023-02-13T18:10:21.445Z,103185.91
2023-02-13T18:12:48.671Z,103188.09
2023-02-13T18:15:15.973Z,103184.03
2023-02-13T18:17:42.568Z,103182.97
2023-02-13T18:20:12.466Z,103184.31
2023-02-13T18:22:39.004Z,103182.44
2023-02-13T18:25:05.912Z,103185.94
2023-02-13T18:27:32.490Z,103183.78
2023-02-13T18:29:59.186Z,103185.94
2023-02-13T18:32:26.015Z,103186.50
2023-02-13T18:34:52.508Z,103188.66
2023-02-13T18:37:19.029Z,103185.66
2023-02-13T18:39:45.548Z,103185.97
2023-02-13T18:42:13.293Z,103186.75
2023-02-13T18:44:41.090Z,103183.25
2023-02-13T18:47:07.686Z,103185.41
2023-02-13T18:49:34.397Z,103187.00
2023-02-13T18:52:02.247Z,103183.78
2023-02-13T18:54:28.829Z,103183.78
2023-02-13T18:56:55.449Z,103185.97
2023-02-13T18:59:23.111Z,103186.75
2023-02-13T19:01:50.121Z,103177.03
2023-02-13T19:04:16.734Z,103174.06
2023-02-13T19:06:44.377Z,103173.53
2023-02-13T19:09:11.293Z,103169.22
2023-02-13T19:11:38.821Z,103171.13
2023-02-13T19:14:05.873Z,103173.56
2023-02-13T19:16:33.876Z,103171.38
2023-02-13T19:19:02.447Z,103179.22
2023-02-13T19:21:31.148Z,103171.13
2023-02-13T19:23:57.800Z,103171.38
2023-02-13T19:26:26.225Z,103171.38
2023-02-13T19:28:53.216Z,103176.78
2023-02-13T19:31:22.668Z,103185.13
2023-02-13T19:33:50.217Z,103190.28
2023-02-13T19:36:20.306Z,103184.88
2023-02-13T19:38:47.761Z,103185.69
2023-02-13T19:41:17.958Z,103186.47
2023-02-13T19:43:51.025Z,103186.47
2023-02-13T19:46:23.177Z,103195.91
2023-02-13T19:48:50.795Z,103198.88
2023-02-13T19:51:22.824Z,103194.03
2023-02-13T19:53:49.661Z,103194.03
2023-02-13T19:56:16.248Z,103195.63
2023-02-13T19:58:43.186Z,103193.72
2023-02-13T20:01:12.125Z,103195.34
2023-02-13T20:03:39.086Z,103197.50
2023-02-13T20:06:07.833Z,103200.47
2023-02-13T20:08:34.735Z,103210.72
2023-02-13T20:11:01.577Z,103206.72
2023-02-13T20:13:28.408Z,103206.72
2023-02-13T20:15:55.280Z,103208.06
2023-02-13T20:18:21.865Z,103206.72
2023-02-13T20:20:48.497Z,103195.09
2023-02-13T20:23:17.596Z,103202.63
2023-02-13T20:25:44.880Z,103200.47
2023-02-13T20:28:11.537Z,103212.34
2023-02-13T20:30:42.336Z,103209.66
2023-02-13T20:33:09.117Z,103208.03
2023-02-13T20:35:35.988Z,103211.53
2023-02-13T20:38:03.274Z,103215.59
2023-02-13T20:40:29.754Z,103209.66
2023-02-13T20:42:56.295Z,103218.28
2023-02-13T20:45:22.782Z,103221.25
2023-02-13T20:47:49.765Z,103223.94
2023-02-13T20:50:16.287Z,103222.06
2023-02-13T20:52:42.999Z,103225.28
2023-02-13T20:55:09.548Z,103231.50
2023-02-13T20:57:36.344Z,103222.06
2023-02-13T21:00:05.485Z,103230.69
2023-02-13T21:02:32.144Z,103233.69
2023-02-13T21:04:58.766Z,103234.72
2023-02-13T21:07:25.390Z,103238.25
2023-02-13T21:09:51.886Z,103234.72
2023-02-13T21:12:18.437Z,103237.97
2023-02-13T21:14:44.950Z,103233.38
2023-02-13T21:17:11.478Z,103237.97
2023-02-13T21:19:38.610Z,103240.69
2023-02-13T21:22:12.016Z,103243.91
2023-02-13T21:24:42.895Z,103241.47
2023-02-13T21:27:09.714Z,103242.03
2023-02-13T21:29:36.299Z,103246.59
2023-02-13T21:32:03.399Z,103240.41
2023-02-13T21:34:30.071Z,103245.50
2023-02-13T21:36:56.600Z,103244.97
2023-02-13T21:39:23.103Z,103242.03
2023-02-13T21:41:49.663Z,103249.56
2023-02-13T21:44:16.517Z,103240.94
2023-02-13T21:46:43.850Z,103236.34
2023-02-13T21:49:16.728Z,103240.94
2023-02-13T21:51:43.679Z,103237.69
2023-02-13T21:54:10.989Z,103238.50
2023-02-13T21:56:39.679Z,103243.63
2023-02-13T21:59:06.501Z,103241.47
2023-02-13T22:01:44.221Z,103240.91
2023-02-13T22:04:10.923Z,103245.22
2023-02-13T22:06:38.836Z,103248.22
2023-02-13T22:09:12.645Z,103248.72
2023-02-13T22:11:39.596Z,103246.59
2023-02-13T22:14:07.998Z,103245.75
2023-02-13T22:16:36.278Z,103245.75
2023-02-13T22:19:03.858Z,103247.09
2023-02-13T22:21:31.871Z,103251.13
2023-02-13T22:23:58.670Z,103255.44
2023-02-13T22:26:30.272Z,103261.94
2023-02-13T22:29:00.899Z,103256.00
2023-02-13T22:31:27.991Z,103265.13
2023-02-13T22:34:03.412Z,103258.69
2023-02-13T22:36:35.239Z,103255.44
2023-02-13T22:39:01.763Z,103255.41
2023-02-13T22:41:28.387Z,103254.63
2023-02-13T22:43:54.994Z,103261.88
2023-02-13T22:46:25.376Z,103260.53
2023-02-13T22:48:52.541Z,103263.22
2023-02-13T22:51:21.470Z,103265.66
2023-02-13T22:53:48.500Z,103260.78
2023-02-13T22:56:15.439Z,103267.25
2023-02-13T22:58:42.006Z,103264.56
2023-02-13T23:01:16.929Z,103262.44
2023-02-13T23:03:43.962Z,103264.56
2023-02-13T23:06:11.510Z,103257.00
2023-02-13T23:08:38.335Z,103264.84
2023-02-13T23:11:32.113Z,103254.59
2023-02-13T23:13:58.856Z,103255.94
2023-02-13T23:16:25.648Z,103258.63
2023-02-13T23:18:53.637Z,103255.69
2023-02-13T23:21:20.514Z,103261.88
2023-02-13T23:23:47.076Z,103257.03
2023-02-13T23:26:13.903Z,103252.97
2023-02-13T23:28:40.443Z,103251.91
2023-02-13T23:31:07.160Z,103243.00
2023-02-13T23:33:33.719Z,103256.22
2023-02-13T23:36:00.249Z,103250.53
2023-02-13T23:38:27.216Z,103261.34
2023-02-13T23:40:53.696Z,103265.09
2023-02-13T23:43:20.206Z,103265.09
2023-02-13T23:45:46.685Z,103270.50
2023-02-13T23:48:13.451Z,103267.22
2023-02-13T23:50:40.386Z,103271.00
2023-02-13T23:53:07.221Z,103268.84
2023-02-13T23:55:33.780Z,103272.63
2023-02-13T23:58:00.846Z,103266.41
